Capt. Joe — WDF7584 — position and weather

sailwx.info

Track history (hours):
 
Tides and Currents Weather Stations Pressure Air Temp Water Temp Dewpoint Dewpoint Depression Visibility Wind Speed Wind Dir Waves Ship Positions

Capt. Joe

Owner: Princess Elena, Inc., Gloucester, MA. More information available from US FCC via Universal Licensing System and Coast Guard Vessel Documentation Center.

Last reported at 2018-Feb-26 03:00 UTC. Time now 2018-Feb-26 03:13 UTC.
Position N 42°37' W 070°40'.

Length 25 m; draft 14 m.

Type: Fishing. MMSI: 367485980.

Date/timePositionNaut miles runAvg speedWind from/ knotsBaromVisibWave heightAir tempDewpointWater temp
2018-Feb-26 03:00N 42°37' W 070°40'0 0.0
2018-Feb-26 02:30N 42°37' W 070°40'0 0.0
2018-Feb-26 02:00N 42°37' W 070°40'0 0.0
2018-Feb-26 01:30N 42°37' W 070°40'0 0.0
2018-Feb-26 01:00N 42°37' W 070°40'0 0.0
2018-Feb-26 00:30N 42°37' W 070°40'0 0.0
2018-Feb-26 00:00N 42°37' W 070°40'0 0.0
2018-Feb-25 23:30N 42°37' W 070°40'0 0.0
2018-Feb-25 23:00N 42°37' W 070°40'0 0.0
2018-Feb-25 22:30N 42°37' W 070°40'0 0.0
2018-Feb-25 22:00N 42°37' W 070°40'0 0.0
2018-Feb-25 21:30N 42°37' W 070°40'0 0.0
2018-Feb-25 21:00N 42°37' W 070°40'0 0.2
2018-Feb-25 20:30N 42°37' W 070°40'0 0.8
2018-Feb-25 20:00N 42°37' W 070°39'0 0.0
2018-Feb-25 19:30N 42°37' W 070°39'2 4.5
2018-Feb-25 19:00N 42°34' W 070°39'4 8.0
2018-Feb-25 18:30N 42°36' W 070°34'4 7.4
2018-Feb-25 18:00N 42°37' W 070°30'4 7.8
2018-Feb-25 17:30N 42°39' W 070°25'4 7.7
2018-Feb-25 17:00N 42°41' W 070°20'4 7.6
2018-Feb-25 16:30N 42°42' W 070°15'4 7.5
2018-Feb-25 16:00N 42°44' W 070°11'  
2018-Feb-18 22:15N 42°41' W 070°16'2 7.7
2018-Feb-18 22:00N 42°41' W 070°18'4 7.7
2018-Feb-18 21:30N 42°39' W 070°23'4 7.7
2018-Feb-18 21:00N 42°38' W 070°28'4 7.6
2018-Feb-18 20:31N 42°36' W 070°32'4 7.6
2018-Feb-18 20:00N 42°35' W 070°37'3 5.3
2018-Feb-18 19:30N 42°36' W 070°40'1 1.2
2018-Feb-18 19:00N 42°37' W 070°40'0 0.0
2018-Feb-18 18:30N 42°37' W 070°40'0 0.0
2018-Feb-18 18:00N 42°37' W 070°40'0 0.0
2018-Feb-18 17:30N 42°37' W 070°40'0 0.0
2018-Feb-18 17:00N 42°37' W 070°40'0 0.9
2018-Feb-18 16:30N 42°37' W 070°39'0 0.0
2018-Feb-18 16:00N 42°37' W 070°39'0 0.0
2018-Feb-18 15:30N 42°37' W 070°39'0 0.0
2018-Feb-18 15:00N 42°37' W 070°39'0 0.0
2018-Feb-18 14:30N 42°37' W 070°39'0 0.0
2018-Feb-18 13:59N 42°37' W 070°39'0 0.0
2018-Feb-18 13:30N 42°37' W 070°39'0 0.0
2018-Feb-18 13:00N 42°37' W 070°39'0 0.0
2018-Feb-18 12:30N 42°37' W 070°39'0 0.0
2018-Feb-18 12:00N 42°37' W 070°39'0 0.0
2018-Feb-18 11:30N 42°37' W 070°39'0 0.0
2018-Feb-18 11:00N 42°37' W 070°39'0 0.0
2018-Feb-18 10:30N 42°37' W 070°39'0 0.0
2018-Feb-18 10:00N 42°37' W 070°39'0 0.0
2018-Feb-18 09:30N 42°37' W 070°39'0 0.0
2018-Feb-18 09:00N 42°37' W 070°39'0 0.0
2018-Feb-18 08:30N 42°37' W 070°39'0 0.0
2018-Feb-18 08:00N 42°37' W 070°39'0 0.0
2018-Feb-18 07:30N 42°37' W 070°39'0 0.0
2018-Feb-18 07:00N 42°37' W 070°39'0 0.0
2018-Feb-18 06:30N 42°37' W 070°39'0 0.0
2018-Feb-18 06:00N 42°37' W 070°39'0 0.0
2018-Feb-18 05:30N 42°37' W 070°39'0 0.0
2018-Feb-18 05:00N 42°37' W 070°39'0 0.0
2018-Feb-18 04:30N 42°37' W 070°39'0 0.0
2018-Feb-18 04:00N 42°37' W 070°39'0 0.0
2018-Feb-18 03:30N 42°37' W 070°39'0 0.0
2018-Feb-18 03:00N 42°37' W 070°39'0 0.0
2018-Feb-18 02:30N 42°37' W 070°39'0 0.0
2018-Feb-18 02:00N 42°37' W 070°39'0 0.0
2018-Feb-18 01:30N 42°37' W 070°39'0 0.0
2018-Feb-18 00:59N 42°37' W 070°39'0 0.0
2018-Feb-18 00:30N 42°37' W 070°39'0 0.0
2018-Feb-18 00:00N 42°37' W 070°39'0 0.0
2018-Feb-17 23:30N 42°37' W 070°39'0 0.0
2018-Feb-17 23:00N 42°37' W 070°39'0 0.0
2018-Feb-17 22:30N 42°37' W 070°39'0 0.0
2018-Feb-17 22:00N 42°37' W 070°39'0 0.0
2018-Feb-17 21:30N 42°37' W 070°39'0 0.0
2018-Feb-17 21:00N 42°37' W 070°39'0 0.0
2018-Feb-17 20:31N 42°37' W 070°39'0 0.0
2018-Feb-17 20:00N 42°37' W 070°39'0 0.0
2018-Feb-17 19:31N 42°37' W 070°39'0 0.0
2018-Feb-17 19:00N 42°37' W 070°39'0 0.0
2018-Feb-17 18:30N 42°37' W 070°39'0 0.0
2018-Feb-17 18:00N 42°37' W 070°39'0 0.0
2018-Feb-17 17:30N 42°37' W 070°39'0 0.0
2018-Feb-17 17:00N 42°37' W 070°39'0 0.0
2018-Feb-17 16:30N 42°37' W 070°39'0 0.0
2018-Feb-17 16:00N 42°37' W 070°39'0 0.0
2018-Feb-17 15:30N 42°37' W 070°39'0 0.0
2018-Feb-17 15:01N 42°37' W 070°39'0 0.0
2018-Feb-17 14:30N 42°37' W 070°39'0 0.0
2018-Feb-17 14:00N 42°37' W 070°39'0 0.0
2018-Feb-17 13:30N 42°37' W 070°39'0 0.0
2018-Feb-17 13:00N 42°37' W 070°39'0 0.0
2018-Feb-17 12:30N 42°37' W 070°39'0 0.0
2018-Feb-17 12:00N 42°37' W 070°39'0 0.0
2018-Feb-17 11:30N 42°37' W 070°39'0 0.0
2018-Feb-17 11:00N 42°37' W 070°39'0 0.0
2018-Feb-17 10:30N 42°37' W 070°39'0 0.0
2018-Feb-17 10:00N 42°37' W 070°39'0 0.0
2018-Feb-17 09:30N 42°37' W 070°39'0 0.0
2018-Feb-17 09:00N 42°37' W 070°39'0 0.0
2018-Feb-17 08:30N 42°37' W 070°39'0 0.0
2018-Feb-17 08:00N 42°37' W 070°39'0 0.0
2018-Feb-17 07:30N 42°37' W 070°39'0 0.0
2018-Feb-17 07:00N 42°37' W 070°39'0 0.0
2018-Feb-17 06:30N 42°37' W 070°39'0 0.0
2018-Feb-17 06:00N 42°37' W 070°39'0 0.0
2018-Feb-17 05:30N 42°37' W 070°39'0 0.0
2018-Feb-17 05:00N 42°37' W 070°39'0 0.0
2018-Feb-17 04:30N 42°37' W 070°39'0 0.0
2018-Feb-17 04:00N 42°37' W 070°39'0 0.0
2018-Feb-17 03:30N 42°37' W 070°39'0 0.0
2018-Feb-17 03:00N 42°37' W 070°39'0 0.0
2018-Feb-17 02:30N 42°37' W 070°39'0 0.0
2018-Feb-17 02:00N 42°37' W 070°39'0 0.0
2018-Feb-17 01:30N 42°37' W 070°39'0 0.0
2018-Feb-17 01:00N 42°37' W 070°39'0 0.0
2018-Feb-17 00:30N 42°37' W 070°39'0 0.0
2018-Feb-17 00:00N 42°37' W 070°39'0 0.0
2018-Feb-16 23:30N 42°37' W 070°39'0 0.0
2018-Feb-16 23:00N 42°37' W 070°39'0 0.0
2018-Feb-16 22:31N 42°37' W 070°39'0 0.0
2018-Feb-16 22:00N 42°37' W 070°39'0 0.0
2018-Feb-16 21:30N 42°37' W 070°39'0 0.0
2018-Feb-16 21:00N 42°37' W 070°39'0 0.0
2018-Feb-16 20:30N 42°37' W 070°39'0 0.0
2018-Feb-16 20:00N 42°37' W 070°39'0 0.0
2018-Feb-16 19:30N 42°37' W 070°39'0 0.0
2018-Feb-16 19:00N 42°37' W 070°39'0 0.0
2018-Feb-16 18:30N 42°37' W 070°39'0 0.0
2018-Feb-16 18:00N 42°37' W 070°39'0 0.0
2018-Feb-16 17:30N 42°37' W 070°39'0 0.0
2018-Feb-16 17:00N 42°37' W 070°39'0 0.0
2018-Feb-16 16:30N 42°37' W 070°39'0 0.0
2018-Feb-16 16:00N 42°37' W 070°39'0 0.0
2018-Feb-16 15:30N 42°37' W 070°39'0 0.0
2018-Feb-16 15:00N 42°37' W 070°39'0 0.0
2018-Feb-16 14:30N 42°37' W 070°39'0 0.0
2018-Feb-16 14:00N 42°37' W 070°39'0 0.0
2018-Feb-16 13:30N 42°37' W 070°39'0 0.0
2018-Feb-16 13:00N 42°37' W 070°39'0 0.0
2018-Feb-16 12:30N 42°37' W 070°39'0 0.0
2018-Feb-16 12:00N 42°37' W 070°39'0 0.0
2018-Feb-16 11:30N 42°37' W 070°39'0 0.0
2018-Feb-16 10:59N 42°37' W 070°39'0 0.0
2018-Feb-16 10:30N 42°37' W 070°39'0 0.0
2018-Feb-16 10:00N 42°37' W 070°39'0 0.0
2018-Feb-16 09:30N 42°37' W 070°39'0 0.0
2018-Feb-16 09:00N 42°37' W 070°39'0 0.0
2018-Feb-16 08:30N 42°37' W 070°39'0 0.0
2018-Feb-16 08:00N 42°37' W 070°39'0 0.0
2018-Feb-16 07:30N 42°37' W 070°39'0 0.0
2018-Feb-16 07:00N 42°37' W 070°39'0 0.0
2018-Feb-16 06:30N 42°37' W 070°39'0 0.0
2018-Feb-16 06:00N 42°37' W 070°39'0 0.0
2018-Feb-16 05:30N 42°37' W 070°39'0 0.0
2018-Feb-16 05:00N 42°37' W 070°39'0 0.0
2018-Feb-16 04:30N 42°37' W 070°39'0 0.0
2018-Feb-16 04:00N 42°37' W 070°39'0 0.0
2018-Feb-16 03:30N 42°37' W 070°39'  
Track history (hours):
 
Tides and Currents Weather Stations Pressure Air Temp Water Temp Dewpoint Dewpoint Depression Visibility Wind Speed Wind Dir Waves Ship Positions

Capt. Joe

Owner: Princess Elena, Inc., Gloucester, MA. More information available from US FCC via Universal Licensing System and Coast Guard Vessel Documentation Center.

Last reported at 2018-Feb-26 03:00 UTC. Time now 2018-Feb-26 03:13 UTC.
Position N 42°37' W 070°40'.

Length 25 m; draft 14 m.

Type: Fishing. MMSI: 367485980.

Date/timePositionNaut miles runAvg speedWind from/ knotsBaromVisibWave heightAir tempDewpointWater temp
2018-Feb-26 03:00N 42°37' W 070°40'0 0.0
2018-Feb-26 02:30N 42°37' W 070°40'0 0.0
2018-Feb-26 02:00N 42°37' W 070°40'0 0.0
2018-Feb-26 01:30N 42°37' W 070°40'0 0.0
2018-Feb-26 01:00N 42°37' W 070°40'0 0.0
2018-Feb-26 00:30N 42°37' W 070°40'0 0.0
2018-Feb-26 00:00N 42°37' W 070°40'0 0.0
2018-Feb-25 23:30N 42°37' W 070°40'0 0.0
2018-Feb-25 23:00N 42°37' W 070°40'0 0.0
2018-Feb-25 22:30N 42°37' W 070°40'0 0.0
2018-Feb-25 22:00N 42°37' W 070°40'0 0.0
2018-Feb-25 21:30N 42°37' W 070°40'0 0.0
2018-Feb-25 21:00N 42°37' W 070°40'0 0.2
2018-Feb-25 20:30N 42°37' W 070°40'0 0.8
2018-Feb-25 20:00N 42°37' W 070°39'0 0.0
2018-Feb-25 19:30N 42°37' W 070°39'2 4.5
2018-Feb-25 19:00N 42°34' W 070°39'4 8.0
2018-Feb-25 18:30N 42°36' W 070°34'4 7.4
2018-Feb-25 18:00N 42°37' W 070°30'4 7.8
2018-Feb-25 17:30N 42°39' W 070°25'4 7.7
2018-Feb-25 17:00N 42°41' W 070°20'4 7.6
2018-Feb-25 16:30N 42°42' W 070°15'4 7.5
2018-Feb-25 16:00N 42°44' W 070°11'  
2018-Feb-18 22:15N 42°41' W 070°16'2 7.7
2018-Feb-18 22:00N 42°41' W 070°18'4 7.7
2018-Feb-18 21:30N 42°39' W 070°23'4 7.7
2018-Feb-18 21:00N 42°38' W 070°28'4 7.6
2018-Feb-18 20:31N 42°36' W 070°32'4 7.6
2018-Feb-18 20:00N 42°35' W 070°37'3 5.3
2018-Feb-18 19:30N 42°36' W 070°40'1 1.2
2018-Feb-18 19:00N 42°37' W 070°40'0 0.0
2018-Feb-18 18:30N 42°37' W 070°40'0 0.0
2018-Feb-18 18:00N 42°37' W 070°40'0 0.0
2018-Feb-18 17:30N 42°37' W 070°40'0 0.0
2018-Feb-18 17:00N 42°37' W 070°40'0 0.9
2018-Feb-18 16:30N 42°37' W 070°39'0 0.0
2018-Feb-18 16:00N 42°37' W 070°39'0 0.0
2018-Feb-18 15:30N 42°37' W 070°39'0 0.0
2018-Feb-18 15:00N 42°37' W 070°39'0 0.0
2018-Feb-18 14:30N 42°37' W 070°39'0 0.0
2018-Feb-18 13:59N 42°37' W 070°39'0 0.0
2018-Feb-18 13:30N 42°37' W 070°39'0 0.0
2018-Feb-18 13:00N 42°37' W 070°39'0 0.0
2018-Feb-18 12:30N 42°37' W 070°39'0 0.0
2018-Feb-18 12:00N 42°37' W 070°39'0 0.0
2018-Feb-18 11:30N 42°37' W 070°39'0 0.0
2018-Feb-18 11:00N 42°37' W 070°39'0 0.0
2018-Feb-18 10:30N 42°37' W 070°39'0 0.0
2018-Feb-18 10:00N 42°37' W 070°39'0 0.0
2018-Feb-18 09:30N 42°37' W 070°39'0 0.0
2018-Feb-18 09:00N 42°37' W 070°39'0 0.0
2018-Feb-18 08:30N 42°37' W 070°39'0 0.0
2018-Feb-18 08:00N 42°37' W 070°39'0 0.0
2018-Feb-18 07:30N 42°37' W 070°39'0 0.0
2018-Feb-18 07:00N 42°37' W 070°39'0 0.0
2018-Feb-18 06:30N 42°37' W 070°39'0 0.0
2018-Feb-18 06:00N 42°37' W 070°39'0 0.0
2018-Feb-18 05:30N 42°37' W 070°39'0 0.0
2018-Feb-18 05:00N 42°37' W 070°39'0 0.0
2018-Feb-18 04:30N 42°37' W 070°39'0 0.0
2018-Feb-18 04:00N 42°37' W 070°39'0 0.0
2018-Feb-18 03:30N 42°37' W 070°39'0 0.0
2018-Feb-18 03:00N 42°37' W 070°39'0 0.0
2018-Feb-18 02:30N 42°37' W 070°39'0 0.0
2018-Feb-18 02:00N 42°37' W 070°39'0 0.0
2018-Feb-18 01:30N 42°37' W 070°39'0 0.0
2018-Feb-18 00:59N 42°37' W 070°39'0 0.0
2018-Feb-18 00:30N 42°37' W 070°39'0 0.0
2018-Feb-18 00:00N 42°37' W 070°39'0 0.0
2018-Feb-17 23:30N 42°37' W 070°39'0 0.0
2018-Feb-17 23:00N 42°37' W 070°39'0 0.0
2018-Feb-17 22:30N 42°37' W 070°39'0 0.0
2018-Feb-17 22:00N 42°37' W 070°39'0 0.0
2018-Feb-17 21:30N 42°37' W 070°39'0 0.0
2018-Feb-17 21:00N 42°37' W 070°39'0 0.0
2018-Feb-17 20:31N 42°37' W 070°39'0 0.0
2018-Feb-17 20:00N 42°37' W 070°39'0 0.0
2018-Feb-17 19:31N 42°37' W 070°39'0 0.0
2018-Feb-17 19:00N 42°37' W 070°39'0 0.0
2018-Feb-17 18:30N 42°37' W 070°39'0 0.0
2018-Feb-17 18:00N 42°37' W 070°39'0 0.0
2018-Feb-17 17:30N 42°37' W 070°39'0 0.0
2018-Feb-17 17:00N 42°37' W 070°39'0 0.0
2018-Feb-17 16:30N 42°37' W 070°39'0 0.0
2018-Feb-17 16:00N 42°37' W 070°39'0 0.0
2018-Feb-17 15:30N 42°37' W 070°39'0 0.0
2018-Feb-17 15:01N 42°37' W 070°39'0 0.0
2018-Feb-17 14:30N 42°37' W 070°39'0 0.0
2018-Feb-17 14:00N 42°37' W 070°39'0 0.0
2018-Feb-17 13:30N 42°37' W 070°39'0 0.0
2018-Feb-17 13:00N 42°37' W 070°39'0 0.0
2018-Feb-17 12:30N 42°37' W 070°39'0 0.0
2018-Feb-17 12:00N 42°37' W 070°39'0 0.0
2018-Feb-17 11:30N 42°37' W 070°39'0 0.0
2018-Feb-17 11:00N 42°37' W 070°39'0 0.0
2018-Feb-17 10:30N 42°37' W 070°39'0 0.0
2018-Feb-17 10:00N 42°37' W 070°39'0 0.0
2018-Feb-17 09:30N 42°37' W 070°39'0 0.0
2018-Feb-17 09:00N 42°37' W 070°39'0 0.0
2018-Feb-17 08:30N 42°37' W 070°39'0 0.0
2018-Feb-17 08:00N 42°37' W 070°39'0 0.0
2018-Feb-17 07:30N 42°37' W 070°39'0 0.0
2018-Feb-17 07:00N 42°37' W 070°39'0 0.0
2018-Feb-17 06:30N 42°37' W 070°39'0 0.0
2018-Feb-17 06:00N 42°37' W 070°39'0 0.0
2018-Feb-17 05:30N 42°37' W 070°39'0 0.0
2018-Feb-17 05:00N 42°37' W 070°39'0 0.0
2018-Feb-17 04:30N 42°37' W 070°39'0 0.0
2018-Feb-17 04:00N 42°37' W 070°39'0 0.0
2018-Feb-17 03:30N 42°37' W 070°39'0 0.0
2018-Feb-17 03:00N 42°37' W 070°39'0 0.0
2018-Feb-17 02:30N 42°37' W 070°39'0 0.0
2018-Feb-17 02:00N 42°37' W 070°39'0 0.0
2018-Feb-17 01:30N 42°37' W 070°39'0 0.0
2018-Feb-17 01:00N 42°37' W 070°39'0 0.0
2018-Feb-17 00:30N 42°37' W 070°39'0 0.0
2018-Feb-17 00:00N 42°37' W 070°39'0 0.0
2018-Feb-16 23:30N 42°37' W 070°39'0 0.0
2018-Feb-16 23:00N 42°37' W 070°39'0 0.0
2018-Feb-16 22:31N 42°37' W 070°39'0 0.0
2018-Feb-16 22:00N 42°37' W 070°39'0 0.0
2018-Feb-16 21:30N 42°37' W 070°39'0 0.0
2018-Feb-16 21:00N 42°37' W 070°39'0 0.0
2018-Feb-16 20:30N 42°37' W 070°39'0 0.0
2018-Feb-16 20:00N 42°37' W 070°39'0 0.0
2018-Feb-16 19:30N 42°37' W 070°39'0 0.0
2018-Feb-16 19:00N 42°37' W 070°39'0 0.0
2018-Feb-16 18:30N 42°37' W 070°39'0 0.0
2018-Feb-16 18:00N 42°37' W 070°39'0 0.0
2018-Feb-16 17:30N 42°37' W 070°39'0 0.0
2018-Feb-16 17:00N 42°37' W 070°39'0 0.0
2018-Feb-16 16:30N 42°37' W 070°39'0 0.0
2018-Feb-16 16:00N 42°37' W 070°39'0 0.0
2018-Feb-16 15:30N 42°37' W 070°39'0 0.0
2018-Feb-16 15:00N 42°37' W 070°39'0 0.0
2018-Feb-16 14:30N 42°37' W 070°39'0 0.0
2018-Feb-16 14:00N 42°37' W 070°39'0 0.0
2018-Feb-16 13:30N 42°37' W 070°39'0 0.0
2018-Feb-16 13:00N 42°37' W 070°39'0 0.0
2018-Feb-16 12:30N 42°37' W 070°39'0 0.0
2018-Feb-16 12:00N 42°37' W 070°39'0 0.0
2018-Feb-16 11:30N 42°37' W 070°39'0 0.0
2018-Feb-16 10:59N 42°37' W 070°39'0 0.0
2018-Feb-16 10:30N 42°37' W 070°39'0 0.0
2018-Feb-16 10:00N 42°37' W 070°39'0 0.0
2018-Feb-16 09:30N 42°37' W 070°39'0 0.0
2018-Feb-16 09:00N 42°37' W 070°39'0 0.0
2018-Feb-16 08:30N 42°37' W 070°39'0 0.0
2018-Feb-16 08:00N 42°37' W 070°39'0 0.0
2018-Feb-16 07:30N 42°37' W 070°39'0 0.0
2018-Feb-16 07:00N 42°37' W 070°39'0 0.0
2018-Feb-16 06:30N 42°37' W 070°39'0 0.0
2018-Feb-16 06:00N 42°37' W 070°39'0 0.0
2018-Feb-16 05:30N 42°37' W 070°39'0 0.0
2018-Feb-16 05:00N 42°37' W 070°39'0 0.0
2018-Feb-16 04:30N 42°37' W 070°39'0 0.0
2018-Feb-16 04:00N 42°37' W 070°39'0 0.0
2018-Feb-16 03:30N 42°37' W 070°39'  

Dump ship's entire track history